createdAt,value
2022-08-17T00:00:00.089Z,100.00
2022-08-17T00:02:27.479Z,100.00
2022-08-17T00:04:55.584Z,100.00
2022-08-17T00:07:22.939Z,100.00
2022-08-17T00:09:49.808Z,100.00
2022-08-17T00:12:43.465Z,100.00
2022-08-17T00:15:05.146Z,100.00
2022-08-17T00:17:31.929Z,100.00
2022-08-17T00:20:00.321Z,100.00
2022-08-17T00:22:35.265Z,100.00
2022-08-17T00:25:07.565Z,100.00
2022-08-17T00:27:34.729Z,100.00
2022-08-17T00:30:01.536Z,100.00
2022-08-17T00:33:12.189Z,100.00
2022-08-17T00:35:19.559Z,100.00
2022-08-17T00:37:46.311Z,100.00
2022-08-17T00:40:15.360Z,100.00
2022-08-17T00:42:43.617Z,100.00
2022-08-17T00:45:13.376Z,100.00
2022-08-17T00:47:40.557Z,100.00
2022-08-17T00:50:11.015Z,100.00
2022-08-17T00:52:51.666Z,100.00
2022-08-17T00:55:20.036Z,100.00
2022-08-17T00:57:54.633Z,100.00
2022-08-17T01:00:29.679Z,100.00
2022-08-17T01:03:02.528Z,100.00
2022-08-17T01:05:32.208Z,100.00
2022-08-17T01:08:01.171Z,100.00
2022-08-17T01:10:58.657Z,100.00
2022-08-17T01:13:22.122Z,100.00
2022-08-17T01:15:53.717Z,100.00
2022-08-17T01:18:20.516Z,100.00
2022-08-17T01:20:50.810Z,100.00
2022-08-17T01:23:21.346Z,100.00
2022-08-17T01:25:51.661Z,100.00
2022-08-17T01:28:36.400Z,100.00
2022-08-17T01:31:08.318Z,100.00
2022-08-17T01:33:35.717Z,100.00
2022-08-17T01:36:03.690Z,100.00
2022-08-17T01:38:31.974Z,100.00
2022-08-17T01:41:03.375Z,100.00
2022-08-17T01:43:44.867Z,100.00
2022-08-17T01:46:16.216Z,100.00
2022-08-17T01:48:43.732Z,100.00
2022-08-17T01:51:10.458Z,100.00
2022-08-17T01:53:41.639Z,100.00
2022-08-17T01:56:13.873Z,100.00
2022-08-17T01:58:41.467Z,100.00
2022-08-17T02:01:09.993Z,100.00
2022-08-17T02:03:38.550Z,100.00
2022-08-17T02:06:27.260Z,100.00
2022-08-17T02:09:03.134Z,100.00
2022-08-17T02:11:32.817Z,100.00
2022-08-17T02:14:03.267Z,100.00
2022-08-17T02:16:37.952Z,100.00
2022-08-17T02:19:12.017Z,100.00
2022-08-17T02:21:40.400Z,100.00
2022-08-17T02:24:11.022Z,100.00
2022-08-17T02:26:37.975Z,100.00
2022-08-17T02:29:05.038Z,100.00
2022-08-17T02:31:32.356Z,100.00
2022-08-17T02:34:03.639Z,100.00
2022-08-17T02:36:35.445Z,100.00
2022-08-17T02:39:07.890Z,100.00
2022-08-17T02:41:34.789Z,100.00
2022-08-17T02:44:01.586Z,100.00
2022-08-17T02:46:28.984Z,100.00
2022-08-17T02:48:55.859Z,100.00
2022-08-17T02:51:23.213Z,100.00
2022-08-17T02:53:50.101Z,100.00
2022-08-17T02:56:17.162Z,100.00
2022-08-17T02:58:44.007Z,100.00
2022-08-17T03:01:11.054Z,100.00
2022-08-17T03:03:39.106Z,100.00
2022-08-17T03:06:07.841Z,100.00
2022-08-17T03:08:35.520Z,100.00
2022-08-17T03:11:02.235Z,100.00
2022-08-17T03:13:29.222Z,100.00
2022-08-17T03:15:55.945Z,100.00
2022-08-17T03:18:25.627Z,100.00
2022-08-17T03:20:55.223Z,100.00
2022-08-17T03:23:24.290Z,100.00
2022-08-17T03:25:53.642Z,100.00
2022-08-17T03:28:21.914Z,100.00
2022-08-17T03:30:48.919Z,100.00
2022-08-17T03:33:17.030Z,100.00
2022-08-17T03:35:44.164Z,100.00
2022-08-17T03:38:12.448Z,100.00
2022-08-17T03:40:57.632Z,100.00
2022-08-17T03:43:26.148Z,100.00
2022-08-17T03:46:28.144Z,100.00
2022-08-17T03:49:16.723Z,100.00
2022-08-17T03:52:02.282Z,100.00
2022-08-17T03:54:47.610Z,100.00
2022-08-17T03:57:14.411Z,100.00
2022-08-17T03:59:41.839Z,100.00
2022-08-17T04:02:15.867Z,100.00
2022-08-17T04:04:42.777Z,100.00
2022-08-17T04:07:09.708Z,100.00
2022-08-17T04:09:36.734Z,100.00
2022-08-17T04:12:05.105Z,100.00
2022-08-17T04:14:51.519Z,100.00
2022-08-17T04:17:20.319Z,100.00
2022-08-17T04:19:47.288Z,100.00
2022-08-17T04:22:32.765Z,100.00
2022-08-17T04:25:20.909Z,100.00
2022-08-17T04:27:48.879Z,100.00
2022-08-17T04:30:15.894Z,100.00
2022-08-17T04:33:00.516Z,100.00
2022-08-17T04:35:35.336Z,100.00
2022-08-17T04:38:02.130Z,100.00
2022-08-17T04:40:47.565Z,100.00
2022-08-17T04:43:21.320Z,100.00
2022-08-17T04:45:56.094Z,100.00
2022-08-17T04:48:35.471Z,100.00
2022-08-17T04:51:10.715Z,100.00
2022-08-17T04:53:43.446Z,100.00
2022-08-17T04:56:16.623Z,100.00
2022-08-17T04:58:45.969Z,100.00
2022-08-17T05:01:13.005Z,100.00
2022-08-17T05:03:40.049Z,100.00
2022-08-17T05:06:07.197Z,100.00
2022-08-17T05:08:33.999Z,100.00
2022-08-17T05:11:00.975Z,100.00
2022-08-17T05:13:31.961Z,100.00
2022-08-17T05:16:01.314Z,100.00
2022-08-17T05:18:29.938Z,100.00
2022-08-17T05:20:57.311Z,100.00
2022-08-17T05:23:26.993Z,100.00
2022-08-17T05:26:03.908Z,100.00
2022-08-17T05:28:33.928Z,100.00
2022-08-17T05:31:03.533Z,100.00
2022-08-17T05:33:34.247Z,100.00
2022-08-17T05:36:02.410Z,100.00
2022-08-17T05:38:30.403Z,100.00
2022-08-17T05:40:58.274Z,100.00
2022-08-17T05:43:31.306Z,100.00
2022-08-17T05:46:19.187Z,100.00
2022-08-17T05:48:52.836Z,100.00
2022-08-17T05:51:31.482Z,100.00
2022-08-17T05:54:08.115Z,100.00
2022-08-17T05:57:03.619Z,100.00
2022-08-17T05:59:48.683Z,100.00
2022-08-17T06:02:56.495Z,100.00
2022-08-17T06:06:01.481Z,100.00
2022-08-17T06:08:48.220Z,100.00
2022-08-17T06:11:58.827Z,100.00
2022-08-17T06:14:40.661Z,100.00
2022-08-17T06:17:14.106Z,100.00
2022-08-17T06:20:00.369Z,100.00
2022-08-17T06:22:33.832Z,100.00
2022-08-17T06:25:10.277Z,100.00
2022-08-17T06:27:43.764Z,100.00
2022-08-17T06:30:24.988Z,100.00
2022-08-17T06:32:53.597Z,100.00
2022-08-17T06:35:42.510Z,100.00
2022-08-17T06:38:37.261Z,100.00
2022-08-17T06:41:17.662Z,96.86
2022-08-17T06:44:07.605Z,96.40
2022-08-17T06:46:41.619Z,99.02
2022-08-17T06:49:25.943Z,100.00
2022-08-17T06:52:01.378Z,95.10
2022-08-17T06:54:57.747Z,89.93
2022-08-17T06:57:28.721Z,78.50
2022-08-17T07:00:27.931Z,74.42
2022-08-17T07:03:26.509Z,71.27
2022-08-17T07:05:58.005Z,70.43
2022-08-17T07:08:35.542Z,71.23
2022-08-17T07:11:07.863Z,59.34
2022-08-17T07:14:01.552Z,58.47
2022-08-17T07:16:41.435Z,54.88
2022-08-17T07:19:10.799Z,54.31
2022-08-17T07:21:47.182Z,55.34
2022-08-17T07:24:59.685Z,57.62
2022-08-17T07:27:28.087Z,53.29
2022-08-17T07:30:10.536Z,49.52
2022-08-17T07:32:40.547Z,51.49
2022-08-17T07:35:11.175Z,52.03
2022-08-17T07:37:45.629Z,50.73
2022-08-17T07:40:23.700Z,48.92
2022-08-17T07:43:03.312Z,50.00
2022-08-17T07:45:52.252Z,46.27
2022-08-17T07:48:26.121Z,46.60
2022-08-17T07:50:55.694Z,47.34
2022-08-17T07:53:25.947Z,45.83
2022-08-17T07:55:54.007Z,43.83
2022-08-17T07:58:24.130Z,45.46
2022-08-17T08:01:10.127Z,44.62
2022-08-17T08:03:49.395Z,45.20
2022-08-17T08:06:26.507Z,42.96
2022-08-17T08:08:56.050Z,42.32
2022-08-17T08:11:38.359Z,41.52
2022-08-17T08:14:31.078Z,44.20
2022-08-17T08:17:09.374Z,43.18
2022-08-17T08:19:36.364Z,43.46
2022-08-17T08:22:16.476Z,40.84
2022-08-17T08:25:17.090Z,40.65
2022-08-17T08:28:08.177Z,43.12
2022-08-17T08:30:40.806Z,42.40
2022-08-17T08:33:29.548Z,42.21
2022-08-17T08:36:13.730Z,40.00
2022-08-17T08:39:13.588Z,42.01
2022-08-17T08:41:46.474Z,41.38
2022-08-17T08:45:00.719Z,43.91
2022-08-17T08:47:35.484Z,40.72
2022-08-17T08:50:37.006Z,40.25
2022-08-17T08:53:09.307Z,41.01
2022-08-17T08:55:51.943Z,37.54
2022-08-17T08:58:42.674Z,38.65
2022-08-17T09:01:32.605Z,37.75
2022-08-17T09:04:26.860Z,35.76
2022-08-17T09:07:15.628Z,35.61
2022-08-17T09:09:59.139Z,34.61
2022-08-17T09:12:44.666Z,34.53
2022-08-17T09:15:43.329Z,34.57
2022-08-17T09:19:01.132Z,35.45
2022-08-17T09:21:10.734Z,35.42
2022-08-17T09:23:59.476Z,35.03
2022-08-17T09:26:35.301Z,33.56
2022-08-17T09:29:10.108Z,33.73
2022-08-17T09:31:49.546Z,34.13
2022-08-17T09:34:22.408Z,35.47
2022-08-17T09:37:20.244Z,34.33
2022-08-17T09:39:58.030Z,33.10
2022-08-17T09:42:36.746Z,33.22
2022-08-17T09:45:10.441Z,32.55
2022-08-17T09:47:50.282Z,34.91
2022-08-17T09:50:55.393Z,35.25
2022-08-17T09:53:18.546Z,34.34
2022-08-17T09:55:58.367Z,33.87
2022-08-17T09:58:37.359Z,33.28
2022-08-17T10:01:31.547Z,34.07
2022-08-17T10:04:19.975Z,34.59
2022-08-17T10:06:58.763Z,33.45
2022-08-17T10:09:44.291Z,32.36
2022-08-17T10:12:20.680Z,31.80
2022-08-17T10:15:10.668Z,32.61
2022-08-17T10:18:01.555Z,32.26
2022-08-17T10:20:36.422Z,32.21
2022-08-17T10:23:25.114Z,31.49
2022-08-17T10:26:24.969Z,30.96
2022-08-17T10:29:18.920Z,32.20
2022-08-17T10:31:57.843Z,33.39
2022-08-17T10:34:59.594Z,31.62
2022-08-17T10:37:28.448Z,30.10
2022-08-17T10:40:13.742Z,31.30
2022-08-17T10:42:55.962Z,32.42
2022-08-17T10:45:29.641Z,30.02
2022-08-17T10:48:06.803Z,30.40
2022-08-17T10:50:55.696Z,31.15
2022-08-17T10:53:31.342Z,30.43
2022-08-17T10:56:13.604Z,33.42
2022-08-17T10:58:55.218Z,31.04
2022-08-17T11:02:10.716Z,32.52
2022-08-17T11:04:55.377Z,31.53
2022-08-17T11:08:08.635Z,31.79
2022-08-17T11:10:58.283Z,31.38
2022-08-17T11:13:52.710Z,28.88
2022-08-17T11:16:35.175Z,28.06
2022-08-17T11:19:29.607Z,29.72
2022-08-17T11:22:17.865Z,28.74
2022-08-17T11:24:48.101Z,30.12
2022-08-17T11:27:27.726Z,29.16
2022-08-17T11:30:02.233Z,31.42
2022-08-17T11:32:47.539Z,31.38
2022-08-17T11:35:21.140Z,29.67
2022-08-17T11:38:08.714Z,31.35
2022-08-17T11:40:59.508Z,33.26
2022-08-17T11:44:05.580Z,36.59
2022-08-17T11:47:16.033Z,37.46
2022-08-17T11:50:34.661Z,37.52
2022-08-17T11:53:01.369Z,38.93
2022-08-17T11:55:39.352Z,39.93
2022-08-17T11:58:32.278Z,39.23
2022-08-17T12:01:08.929Z,38.78
2022-08-17T12:03:39.100Z,36.57
2022-08-17T12:06:37.907Z,34.68
2022-08-17T12:09:11.203Z,33.94
2022-08-17T12:11:58.789Z,35.06
2022-08-17T12:15:08.455Z,33.14
2022-08-17T12:17:41.364Z,31.33
2022-08-17T12:20:23.186Z,32.64
2022-08-17T12:23:11.413Z,33.05
2022-08-17T12:25:56.758Z,33.77
2022-08-17T12:28:34.079Z,33.62
2022-08-17T12:31:07.752Z,35.88
2022-08-17T12:33:37.146Z,35.60
2022-08-17T12:36:08.711Z,35.64
2022-08-17T12:38:38.124Z,34.62
2022-08-17T12:41:26.173Z,32.84
2022-08-17T12:44:21.913Z,32.48
2022-08-17T12:47:21.974Z,33.72
2022-08-17T12:49:51.531Z,33.83
2022-08-17T12:52:25.875Z,33.14
2022-08-17T12:55:00.137Z,33.19
2022-08-17T12:57:34.819Z,33.31
2022-08-17T13:00:25.954Z,34.40
2022-08-17T13:02:54.917Z,34.47
2022-08-17T13:05:31.590Z,34.79
2022-08-17T13:07:59.979Z,36.42
2022-08-17T13:10:32.408Z,34.60
2022-08-17T13:13:04.998Z,34.16
2022-08-17T13:15:43.241Z,33.98
2022-08-17T13:18:40.111Z,35.39
2022-08-17T13:21:33.259Z,35.29
2022-08-17T13:24:29.561Z,35.46
2022-08-17T13:27:12.104Z,34.37
2022-08-17T13:29:51.620Z,35.27
2022-08-17T13:32:45.729Z,37.21
2022-08-17T13:35:50.287Z,37.72
2022-08-17T13:38:41.166Z,38.87
2022-08-17T13:41:08.033Z,39.79
2022-08-17T13:43:39.418Z,39.88
2022-08-17T13:46:20.008Z,40.20
2022-08-17T13:49:09.697Z,40.38
2022-08-17T13:51:44.071Z,40.59
2022-08-17T13:54:36.559Z,40.84
2022-08-17T13:57:07.682Z,39.06
2022-08-17T13:59:53.596Z,39.78
2022-08-17T14:02:26.108Z,38.60
2022-08-17T14:04:56.098Z,39.52
2022-08-17T14:07:41.152Z,39.73
2022-08-17T14:10:17.374Z,39.73
2022-08-17T14:12:46.193Z,40.21
2022-08-17T14:15:15.768Z,38.97
2022-08-17T14:17:43.433Z,37.74
2022-08-17T14:20:12.358Z,34.99
2022-08-17T14:22:51.569Z,33.70
2022-08-17T14:25:25.696Z,33.42
2022-08-17T14:27:54.094Z,32.98
2022-08-17T14:30:29.013Z,31.63
2022-08-17T14:32:58.327Z,31.56
2022-08-17T14:35:25.384Z,31.92
2022-08-17T14:37:53.010Z,33.34
2022-08-17T14:40:20.959Z,34.33
2022-08-17T14:42:48.210Z,35.44
2022-08-17T14:45:31.494Z,36.17
2022-08-17T14:48:01.389Z,36.85
2022-08-17T14:50:28.182Z,38.49
2022-08-17T14:52:58.182Z,39.49
2022-08-17T14:55:26.142Z,39.50
2022-08-17T14:57:53.138Z,39.28
2022-08-17T15:00:20.018Z,38.47
2022-08-17T15:02:56.058Z,38.86
2022-08-17T15:05:26.147Z,39.44
2022-08-17T15:07:56.238Z,39.42
2022-08-17T15:10:25.781Z,39.82
2022-08-17T15:12:52.804Z,39.94
2022-08-17T15:15:19.732Z,40.30
2022-08-17T15:17:46.578Z,40.22
2022-08-17T15:20:17.554Z,39.68
2022-08-17T15:22:45.829Z,40.23
2022-08-17T15:25:14.562Z,40.36
2022-08-17T15:27:41.643Z,40.90
2022-08-17T15:30:11.710Z,39.58
2022-08-17T15:32:40.973Z,40.51
2022-08-17T15:35:17.729Z,39.61
2022-08-17T15:37:45.208Z,40.88
2022-08-17T15:40:12.785Z,41.42
2022-08-17T15:42:41.112Z,41.63
2022-08-17T15:45:12.370Z,41.65
2022-08-17T15:47:39.694Z,41.07
2022-08-17T15:50:08.832Z,41.74
2022-08-17T15:52:40.596Z,41.86
2022-08-17T15:55:14.149Z,41.17
2022-08-17T15:57:41.284Z,41.85
2022-08-17T16:00:10.417Z,42.28
2022-08-17T16:03:16.011Z,41.95
2022-08-17T16:05:27.353Z,42.79
2022-08-17T16:07:56.114Z,42.47
2022-08-17T16:10:33.918Z,41.29
2022-08-17T16:13:03.009Z,41.70
2022-08-17T16:15:31.319Z,42.45
2022-08-17T16:17:58.013Z,43.39
2022-08-17T16:20:26.124Z,42.64
2022-08-17T16:22:54.573Z,43.23
2022-08-17T16:25:49.060Z,43.26
2022-08-17T16:28:16.172Z,43.47
2022-08-17T16:30:43.682Z,43.48
2022-08-17T16:33:11.777Z,42.88
2022-08-17T16:35:38.927Z,43.61
2022-08-17T16:38:07.110Z,43.57
2022-08-17T16:40:35.879Z,43.75
2022-08-17T16:43:04.621Z,43.09
2022-08-17T16:45:36.659Z,43.89
2022-08-17T16:48:04.180Z,43.63
2022-08-17T16:50:32.003Z,43.67
2022-08-17T16:53:06.849Z,43.90
2022-08-17T16:55:37.355Z,44.62
2022-08-17T16:58:05.467Z,44.77
2022-08-17T17:00:33.861Z,44.54
2022-08-17T17:03:20.180Z,45.26
2022-08-17T17:06:14.808Z,45.93
2022-08-17T17:08:48.512Z,45.82
2022-08-17T17:11:37.103Z,45.84
2022-08-17T17:14:11.929Z,46.06
2022-08-17T17:17:02.758Z,45.72
2022-08-17T17:19:38.637Z,45.92
2022-08-17T17:22:16.446Z,45.73
2022-08-17T17:25:12.211Z,45.72
2022-08-17T17:28:06.585Z,46.04
2022-08-17T17:30:47.843Z,46.51
2022-08-17T17:33:19.341Z,46.37
2022-08-17T17:35:56.999Z,46.73
2022-08-17T17:38:29.585Z,46.61
2022-08-17T17:41:04.758Z,47.34
2022-08-17T17:43:39.234Z,47.19
2022-08-17T17:46:27.537Z,47.93
2022-08-17T17:48:58.577Z,48.28
2022-08-17T17:51:55.686Z,52.84
2022-08-17T17:54:40.668Z,53.34
2022-08-17T17:57:22.404Z,54.88
2022-08-17T18:00:15.748Z,56.39
2022-08-17T18:03:19.548Z,56.08
2022-08-17T18:06:00.647Z,53.84
2022-08-17T18:08:46.774Z,53.82
2022-08-17T18:11:24.028Z,54.26
2022-08-17T18:14:18.896Z,53.03
2022-08-17T18:16:54.793Z,52.82
2022-08-17T18:19:25.532Z,52.93
2022-08-17T18:22:12.953Z,53.35
2022-08-17T18:24:44.318Z,54.06
2022-08-17T18:27:43.148Z,57.08
2022-08-17T18:30:12.883Z,60.64
2022-08-17T18:32:43.706Z,61.81
2022-08-17T18:35:10.475Z,62.50
2022-08-17T18:37:47.060Z,62.50
2022-08-17T18:40:17.029Z,66.47
2022-08-17T18:42:56.444Z,69.63
2022-08-17T18:45:41.219Z,71.37
2022-08-17T18:48:32.854Z,76.04
2022-08-17T18:51:39.957Z,77.91
2022-08-17T18:54:25.127Z,81.01
2022-08-17T18:56:55.695Z,78.73
2022-08-17T18:59:22.368Z,80.24
2022-08-17T19:02:43.868Z,82.10
2022-08-17T19:05:27.155Z,82.92
2022-08-17T19:07:54.873Z,85.66
2022-08-17T19:10:46.249Z,85.64
2022-08-17T19:13:23.894Z,86.60
2022-08-17T19:16:10.118Z,90.53
2022-08-17T19:18:48.655Z,86.53
2022-08-17T19:21:21.451Z,88.56
2022-08-17T19:23:54.635Z,92.02
2022-08-17T19:26:53.928Z,95.29
2022-08-17T19:29:22.609Z,100.00
2022-08-17T19:31:50.155Z,100.00
2022-08-17T19:34:33.113Z,100.00
2022-08-17T19:37:09.105Z,100.00
2022-08-17T19:40:03.118Z,100.00
2022-08-17T19:42:59.498Z,100.00
2022-08-17T19:45:50.170Z,99.78
2022-08-17T19:48:36.915Z,95.92
2022-08-17T19:51:25.963Z,97.20
2022-08-17T19:54:06.246Z,92.14
2022-08-17T19:57:02.344Z,91.43
2022-08-17T19:59:53.387Z,89.18
2022-08-17T20:02:38.263Z,89.08
2022-08-17T20:05:54.665Z,86.54
2022-08-17T20:08:36.664Z,85.22
2022-08-17T20:11:11.129Z,86.25
2022-08-17T20:13:44.813Z,84.40
2022-08-17T20:16:12.434Z,83.80
2022-08-17T20:19:00.927Z,82.91
2022-08-17T20:21:49.649Z,78.71
2022-08-17T20:24:41.223Z,75.41
2022-08-17T20:27:31.721Z,75.85
2022-08-17T20:30:12.053Z,76.05
2022-08-17T20:32:48.864Z,74.44
2022-08-17T20:35:21.368Z,72.94
2022-08-17T20:37:56.631Z,71.09
2022-08-17T20:40:34.210Z,71.21
2022-08-17T20:43:36.722Z,72.00
2022-08-17T20:46:26.928Z,69.64
2022-08-17T20:48:58.656Z,71.38
2022-08-17T20:51:33.548Z,71.30
2022-08-17T20:54:06.622Z,68.67
2022-08-17T20:57:06.210Z,67.41
2022-08-17T20:59:45.091Z,67.23
2022-08-17T21:02:20.155Z,67.83
2022-08-17T21:05:00.321Z,66.12
2022-08-17T21:07:47.757Z,66.25
2022-08-17T21:10:27.919Z,65.90
2022-08-17T21:13:13.751Z,68.54
2022-08-17T21:15:42.355Z,67.95
2022-08-17T21:18:38.682Z,65.07
2022-08-17T21:21:41.187Z,68.25
2022-08-17T21:24:16.795Z,66.24
2022-08-17T21:26:55.650Z,65.02
2022-08-17T21:29:32.504Z,63.83
2022-08-17T21:32:03.886Z,62.91
2022-08-17T21:34:38.341Z,63.20
2022-08-17T21:37:20.510Z,62.74
2022-08-17T21:39:58.731Z,64.96
2022-08-17T21:42:31.512Z,65.47
2022-08-17T21:45:18.314Z,69.08
2022-08-17T21:47:51.209Z,70.81
2022-08-17T21:50:24.447Z,73.89
2022-08-17T21:53:02.416Z,75.72
2022-08-17T21:55:32.540Z,76.15
2022-08-17T21:58:14.780Z,80.16
2022-08-17T22:00:44.781Z,78.94
2022-08-17T22:03:25.949Z,82.35
2022-08-17T22:05:52.754Z,81.19
2022-08-17T22:08:23.181Z,77.69
2022-08-17T22:10:51.580Z,76.04
2022-08-17T22:13:18.302Z,75.03
2022-08-17T22:16:28.578Z,71.87
2022-08-17T22:18:54.745Z,73.79
2022-08-17T22:21:22.573Z,71.96
2022-08-17T22:24:05.235Z,71.89
2022-08-17T22:27:07.686Z,76.02
2022-08-17T22:29:57.362Z,78.73
2022-08-17T22:32:34.595Z,78.41
2022-08-17T22:35:18.396Z,83.70
2022-08-17T22:37:46.002Z,87.64
2022-08-17T22:40:34.525Z,89.78
2022-08-17T22:43:03.580Z,82.93
2022-08-17T22:45:31.297Z,84.28
2022-08-17T22:48:00.382Z,83.72
2022-08-17T22:50:33.523Z,88.10
2022-08-17T22:53:22.315Z,91.19
2022-08-17T22:56:13.889Z,94.70
2022-08-17T22:59:16.356Z,94.30
2022-08-17T23:01:45.571Z,94.74
2022-08-17T23:04:34.169Z,93.85
2022-08-17T23:07:00.930Z,94.79
2022-08-17T23:09:28.447Z,92.30
2022-08-17T23:11:58.551Z,90.17
2022-08-17T23:14:31.790Z,90.31
2022-08-17T23:17:01.746Z,90.53
2022-08-17T23:19:31.838Z,87.99
2022-08-17T23:21:59.876Z,87.39
2022-08-17T23:24:30.209Z,88.46
2022-08-17T23:26:58.238Z,87.42
2022-08-17T23:29:29.628Z,88.53
2022-08-17T23:32:00.131Z,89.30
2022-08-17T23:34:28.332Z,91.35
2022-08-17T23:36:56.285Z,92.98
2022-08-17T23:39:24.601Z,93.49
2022-08-17T23:41:59.186Z,93.18
2022-08-17T23:44:26.910Z,94.89
2022-08-17T23:46:54.392Z,97.60
2022-08-17T23:49:21.292Z,98.67
2022-08-17T23:51:49.165Z,98.39
2022-08-17T23:54:33.765Z,98.19
2022-08-17T23:57:01.972Z,100.00
2022-08-17T23:59:29.336Z,100.00
